createdAt,value
2022-10-28T00:01:17.198Z,85.60
2022-10-28T00:03:50.802Z,85.80
2022-10-28T00:06:21.409Z,85.90
2022-10-28T00:08:49.846Z,85.90
2022-10-28T00:11:21.790Z,85.90
2022-10-28T00:13:50.760Z,86.10
2022-10-28T00:16:25.534Z,86.40
2022-10-28T00:18:53.906Z,86.90
2022-10-28T00:21:26.995Z,87.00
2022-10-28T00:23:54.458Z,87.20
2022-10-28T00:26:24.833Z,87.10
2022-10-28T00:28:57.757Z,87.20
2022-10-28T00:31:27.012Z,87.20
2022-10-28T00:33:54.727Z,87.20
2022-10-28T00:36:28.065Z,87.10
2022-10-28T00:38:58.401Z,87.00
2022-10-28T00:41:34.515Z,86.80
2022-10-28T00:44:40.045Z,86.70
2022-10-28T00:47:33.317Z,86.80
2022-10-28T00:50:48.474Z,86.60
2022-10-28T00:53:29.741Z,86.60
2022-10-28T00:55:59.987Z,86.30
2022-10-28T00:58:27.665Z,86.10
2022-10-28T01:00:54.889Z,86.10
2022-10-28T01:03:22.085Z,86.50
2022-10-28T01:05:49.767Z,86.20
2022-10-28T01:08:17.462Z,86.20
2022-10-28T01:10:57.908Z,86.30
2022-10-28T01:13:36.711Z,86.30
2022-10-28T01:16:15.684Z,86.30
2022-10-28T01:19:35.339Z,86.30
2022-10-28T01:22:27.253Z,86.60
2022-10-28T01:24:56.854Z,86.30
2022-10-28T01:27:56.114Z,86.20
2022-10-28T01:30:29.198Z,86.20
2022-10-28T01:33:10.082Z,86.00
2022-10-28T01:35:50.444Z,86.10
2022-10-28T01:38:31.172Z,86.10
2022-10-28T01:41:14.793Z,85.90
2022-10-28T01:43:54.988Z,85.90
2022-10-28T01:46:26.740Z,85.90
2022-10-28T01:49:06.905Z,85.70
2022-10-28T01:51:44.659Z,85.80
2022-10-28T01:54:17.157Z,85.60
2022-10-28T01:56:47.054Z,85.50
2022-10-28T01:59:20.140Z,85.40
2022-10-28T02:01:47.449Z,85.50
2022-10-28T02:04:14.657Z,85.50
2022-10-28T02:06:44.453Z,85.60
2022-10-28T02:09:34.769Z,85.60
2022-10-28T02:12:40.810Z,85.80
2022-10-28T02:15:20.069Z,85.80
2022-10-28T02:18:24.084Z,85.50
2022-10-28T02:21:00.452Z,85.50
2022-10-28T02:23:45.211Z,86.20
2022-10-28T02:26:40.509Z,85.80
2022-10-28T02:29:37.468Z,85.10
2022-10-28T02:32:18.560Z,85.30
2022-10-28T02:34:50.228Z,85.20
2022-10-28T02:37:24.301Z,85.10
2022-10-28T02:39:59.223Z,85.30
2022-10-28T02:42:31.031Z,85.50
2022-10-28T02:45:06.882Z,85.60
2022-10-28T02:47:40.425Z,85.70
2022-10-28T02:50:14.472Z,85.90
2022-10-28T02:52:45.212Z,86.10
2022-10-28T02:55:12.162Z,86.10
2022-10-28T02:57:44.840Z,86.10
2022-10-28T03:00:18.698Z,86.10
2022-10-28T03:02:46.100Z,86.20
2022-10-28T03:05:14.184Z,86.10
2022-10-28T03:07:41.431Z,86.20
2022-10-28T03:10:09.179Z,86.20
2022-10-28T03:12:36.141Z,86.20
2022-10-28T03:15:03.701Z,86.10
2022-10-28T03:17:30.759Z,86.10
2022-10-28T03:19:57.669Z,86.00
2022-10-28T03:22:24.497Z,86.00
2022-10-28T03:24:51.365Z,86.00
2022-10-28T03:27:18.878Z,86.10
2022-10-28T03:29:46.117Z,85.90
2022-10-28T03:32:13.617Z,85.90
2022-10-28T03:34:41.020Z,86.00
2022-10-28T03:37:08.061Z,86.00
2022-10-28T03:39:35.011Z,86.10
2022-10-28T03:42:02.131Z,86.20
2022-10-28T03:44:29.180Z,86.40
2022-10-28T03:46:56.035Z,86.40
2022-10-28T03:49:23.043Z,86.40
2022-10-28T03:51:49.888Z,86.40
2022-10-28T03:54:16.749Z,86.40
2022-10-28T03:56:43.796Z,86.30
2022-10-28T03:59:11.231Z,86.20
2022-10-28T04:01:39.413Z,86.20
2022-10-28T04:04:06.512Z,86.10
2022-10-28T04:06:33.414Z,86.10
2022-10-28T04:09:00.349Z,86.10
2022-10-28T04:11:27.239Z,86.10
2022-10-28T04:13:54.147Z,86.10
2022-10-28T04:16:20.985Z,86.10
2022-10-28T04:18:47.761Z,86.10
2022-10-28T04:21:14.879Z,86.10
2022-10-28T04:23:42.028Z,86.10
2022-10-28T04:26:08.864Z,86.10
2022-10-28T04:28:35.995Z,86.00
2022-10-28T04:31:02.847Z,86.00
2022-10-28T04:33:29.937Z,86.00
2022-10-28T04:35:56.753Z,86.00
2022-10-28T04:40:55.816Z,86.10
2022-10-28T04:43:22.848Z,86.10
2022-10-28T04:45:49.721Z,86.10
2022-10-28T04:48:16.534Z,86.10
2022-10-28T04:50:43.915Z,86.10
2022-10-28T04:53:11.785Z,86.10
2022-10-28T04:55:39.203Z,86.10
2022-10-28T04:58:06.345Z,86.10
2022-10-28T05:00:33.332Z,86.10
2022-10-28T05:03:03.569Z,86.10
2022-10-28T05:05:30.750Z,86.10
2022-10-28T05:07:57.981Z,86.10
2022-10-28T05:10:25.176Z,86.20
2022-10-28T05:12:52.318Z,86.10
2022-10-28T05:15:19.239Z,86.20
2022-10-28T05:17:48.309Z,87.00
2022-10-28T05:20:17.591Z,86.40
2022-10-28T05:22:53.764Z,86.40
2022-10-28T05:25:21.876Z,86.50
2022-10-28T05:27:49.395Z,86.40
2022-10-28T05:30:16.393Z,86.50
2022-10-28T05:32:43.441Z,86.50
2022-10-28T05:35:10.657Z,86.60
2022-10-28T05:37:37.593Z,86.60
2022-10-28T05:40:05.087Z,86.60
2022-10-28T05:42:32.028Z,86.60
2022-10-28T05:44:58.863Z,86.60
2022-10-28T05:47:26.064Z,86.70
2022-10-28T05:49:56.857Z,86.80
2022-10-28T05:52:23.622Z,86.70
2022-10-28T05:54:50.641Z,86.90
2022-10-28T05:57:17.585Z,87.00
2022-10-28T05:59:44.441Z,87.10
2022-10-28T06:05:07.568Z,87.50
2022-10-28T06:07:34.952Z,87.60
2022-10-28T06:10:03.149Z,87.70
2022-10-28T06:12:28.697Z,88.00
2022-10-28T06:14:55.998Z,88.20
2022-10-28T06:17:23.003Z,88.40
2022-10-28T06:19:50.238Z,88.70
2022-10-28T06:22:17.486Z,88.80
2022-10-28T06:24:44.509Z,89.60
2022-10-28T06:27:11.385Z,88.90
2022-10-28T06:29:38.228Z,89.00
2022-10-28T06:32:09.146Z,89.00
2022-10-28T06:34:37.725Z,89.10
2022-10-28T06:37:09.247Z,89.10
2022-10-28T06:39:39.237Z,89.10
2022-10-28T06:42:06.245Z,89.00
2022-10-28T06:44:33.070Z,88.90
2022-10-28T06:47:01.786Z,88.80
2022-10-28T06:49:29.453Z,88.60
2022-10-28T06:51:56.471Z,88.50
2022-10-28T06:54:23.337Z,88.30
2022-10-28T06:56:50.576Z,88.30
2022-10-28T06:59:17.484Z,88.10
2022-10-28T07:01:44.804Z,88.10
2022-10-28T07:04:13.268Z,88.10
2022-10-28T07:06:41.569Z,88.20
2022-10-28T07:09:10.134Z,88.20
2022-10-28T07:11:37.385Z,88.20
2022-10-28T07:14:04.230Z,88.20
2022-10-28T07:16:31.271Z,88.30
2022-10-28T07:18:58.391Z,88.50
2022-10-28T07:21:28.347Z,88.90
2022-10-28T07:23:56.513Z,89.40
2022-10-28T07:26:24.194Z,89.80
2022-10-28T07:28:51.299Z,90.00
2022-10-28T07:31:18.553Z,90.00
2022-10-28T07:33:55.378Z,89.90
2022-10-28T07:36:22.283Z,88.90
2022-10-28T07:38:53.905Z,88.50
2022-10-28T07:41:22.213Z,88.30
2022-10-28T07:43:49.385Z,87.90
2022-10-28T07:46:17.972Z,87.70
2022-10-28T07:48:44.958Z,87.00
2022-10-28T07:51:15.184Z,86.60
2022-10-28T07:53:42.468Z,86.10
2022-10-28T07:56:14.576Z,85.70
2022-10-28T07:58:43.252Z,85.10
2022-10-28T08:01:12.791Z,83.90
2022-10-28T08:03:40.143Z,82.90
2022-10-28T08:06:10.348Z,82.30
2022-10-28T08:08:38.303Z,80.80
2022-10-28T08:11:22.445Z,79.20
2022-10-28T08:13:52.148Z,76.40
2022-10-28T08:16:19.583Z,76.10
2022-10-28T08:18:46.734Z,75.50
2022-10-28T08:21:14.957Z,74.40
2022-10-28T08:23:46.569Z,73.30
2022-10-28T08:26:15.931Z,72.50
2022-10-28T08:28:43.408Z,71.40
2022-10-28T08:31:12.633Z,70.70
2022-10-28T08:33:44.640Z,68.80
2022-10-28T08:36:17.153Z,66.80
2022-10-28T08:38:46.150Z,65.60
2022-10-28T08:41:39.200Z,63.80
2022-10-28T08:44:30.905Z,61.40
2022-10-28T08:50:31.779Z,59.20
2022-10-28T08:53:12.540Z,60.40
2022-10-28T08:55:52.916Z,58.50
2022-10-28T08:58:31.691Z,57.20
2022-10-28T09:01:04.192Z,56.10
2022-10-28T09:03:39.233Z,56.20
2022-10-28T09:06:11.287Z,56.00
2022-10-28T09:08:46.865Z,56.20
2022-10-28T09:15:14.061Z,55.30
2022-10-28T09:17:54.512Z,55.20
2022-10-28T09:21:11.996Z,55.50
2022-10-28T09:24:42.044Z,53.90
2022-10-28T09:27:36.578Z,52.20
2022-10-28T09:30:17.784Z,50.80
2022-10-28T09:33:13.393Z,51.20
2022-10-28T09:35:44.613Z,50.30
2022-10-28T09:38:31.813Z,50.10
2022-10-28T09:41:10.650Z,49.70
2022-10-28T09:43:54.973Z,48.70
2022-10-28T09:46:24.358Z,48.20
2022-10-28T09:48:55.641Z,47.80
2022-10-28T09:51:52.283Z,46.80
2022-10-28T09:54:28.280Z,46.00
2022-10-28T09:56:57.305Z,45.60
2022-10-28T09:59:24.120Z,44.80
2022-10-28T10:01:52.180Z,44.50
2022-10-28T10:04:26.880Z,43.80
2022-10-28T10:07:09.586Z,42.90
2022-10-28T10:09:39.581Z,41.60
2022-10-28T10:12:11.289Z,41.50
2022-10-28T10:14:48.485Z,40.50
2022-10-28T10:17:20.083Z,40.00
2022-10-28T10:20:16.937Z,39.90
2022-10-28T10:22:45.598Z,38.40
2022-10-28T10:28:03.882Z,41.50
2022-10-28T10:30:46.375Z,36.80
2022-10-28T10:33:28.554Z,37.50
2022-10-28T10:36:10.086Z,36.60
2022-10-28T10:38:38.630Z,36.10
2022-10-28T10:41:06.322Z,36.10
2022-10-28T10:43:39.961Z,35.80
2022-10-28T10:46:18.071Z,35.40
2022-10-28T10:48:45.577Z,34.40
2022-10-28T10:51:23.032Z,34.50
2022-10-28T10:53:55.711Z,33.90
2022-10-28T10:56:29.001Z,34.30
2022-10-28T10:59:01.708Z,34.00
2022-10-28T11:01:35.643Z,33.80
2022-10-28T11:04:18.482Z,34.00
2022-10-28T11:06:51.921Z,34.10
2022-10-28T11:09:35.205Z,33.30
2022-10-28T11:12:35.538Z,33.00
2022-10-28T11:15:30.136Z,33.50
2022-10-28T11:18:21.027Z,33.30
2022-10-28T11:20:56.748Z,33.40
2022-10-28T11:23:54.741Z,33.00
2022-10-28T11:26:24.185Z,32.50
2022-10-28T11:29:07.533Z,32.60
2022-10-28T11:32:23.597Z,32.00
2022-10-28T11:35:28.473Z,31.80
2022-10-28T11:38:05.047Z,31.10
2022-10-28T11:41:15.673Z,30.90
2022-10-28T11:44:00.879Z,30.60
2022-10-28T11:47:25.999Z,30.90
2022-10-28T11:50:23.053Z,30.40
2022-10-28T11:53:24.721Z,29.90
2022-10-28T11:56:10.096Z,29.90
2022-10-28T11:59:07.711Z,29.90
2022-10-28T12:02:05.190Z,29.80
2022-10-28T12:04:55.984Z,29.50
2022-10-28T12:07:41.453Z,29.80
2022-10-28T12:10:14.121Z,29.20
2022-10-28T12:13:07.143Z,29.40
2022-10-28T12:16:00.302Z,28.70
2022-10-28T12:18:43.336Z,28.70
2022-10-28T12:21:36.496Z,28.00
2022-10-28T12:24:11.842Z,27.60
2022-10-28T12:26:44.182Z,27.90
2022-10-28T12:29:34.209Z,28.10
2022-10-28T12:32:05.875Z,28.40
2022-10-28T12:34:43.391Z,28.40
2022-10-28T12:37:22.983Z,28.40
2022-10-28T12:40:06.499Z,28.40
2022-10-28T12:42:43.139Z,28.40
2022-10-28T12:45:17.920Z,28.60
2022-10-28T12:48:00.457Z,28.60
2022-10-28T12:53:42.886Z,29.10
2022-10-28T12:56:24.668Z,29.30
2022-10-28T12:59:13.319Z,29.40
2022-10-28T13:01:41.140Z,29.40
2022-10-28T13:04:15.107Z,29.40
2022-10-28T13:07:27.897Z,29.40
2022-10-28T13:10:46.298Z,29.50
2022-10-28T13:13:27.751Z,29.40
2022-10-28T13:16:15.630Z,29.50
2022-10-28T13:19:17.945Z,29.50
2022-10-28T13:25:18.743Z,29.70
2022-10-28T13:27:46.096Z,29.80
2022-10-28T13:30:24.735Z,29.80
2022-10-28T13:33:13.950Z,29.90
2022-10-28T13:35:40.857Z,30.00
2022-10-28T13:38:13.313Z,30.10
2022-10-28T13:40:40.024Z,30.10
2022-10-28T13:43:22.009Z,30.30
2022-10-28T13:45:56.297Z,30.30
2022-10-28T13:51:22.237Z,30.50
2022-10-28T13:53:57.218Z,30.60
2022-10-28T13:56:46.673Z,30.90
2022-10-28T13:59:13.511Z,31.30
2022-10-28T14:02:35.669Z,31.60
2022-10-28T14:05:10.062Z,32.10
2022-10-28T14:07:50.617Z,32.60
2022-10-28T14:10:26.040Z,32.90
2022-10-28T14:15:48.668Z,33.80
2022-10-28T14:18:41.799Z,34.30
2022-10-28T14:21:04.702Z,34.90
2022-10-28T14:23:36.615Z,35.50
2022-10-28T14:26:05.514Z,36.00
2022-10-28T14:28:32.241Z,36.50
2022-10-28T14:31:08.671Z,36.90
2022-10-28T14:33:37.684Z,37.60
2022-10-28T14:36:16.978Z,38.10
2022-10-28T14:39:17.856Z,38.80
2022-10-28T14:42:27.172Z,39.30
2022-10-28T14:45:12.381Z,39.70
2022-10-28T14:48:09.363Z,40.30
2022-10-28T14:50:49.807Z,40.90
2022-10-28T14:53:29.590Z,41.30
2022-10-28T14:59:04.732Z,42.40
2022-10-28T15:02:18.868Z,41.40
2022-10-28T15:04:48.926Z,43.20
2022-10-28T15:07:18.819Z,43.40
2022-10-28T15:09:53.763Z,43.90
2022-10-28T15:12:26.126Z,44.40
2022-10-28T15:14:58.948Z,44.90
2022-10-28T15:17:30.995Z,45.30
2022-10-28T15:20:00.178Z,45.70
2022-10-28T15:22:33.222Z,46.00
2022-10-28T15:25:09.457Z,46.60
2022-10-28T15:27:39.441Z,47.00
2022-10-28T15:30:25.961Z,47.30
2022-10-28T15:32:54.914Z,48.00
2022-10-28T15:35:40.169Z,48.00
2022-10-28T15:38:28.297Z,48.90
2022-10-28T15:40:55.621Z,49.20
2022-10-28T15:43:29.759Z,49.10
2022-10-28T15:46:16.260Z,49.80
2022-10-28T15:48:43.261Z,50.30
2022-10-28T15:51:18.940Z,50.20
2022-10-28T15:53:47.782Z,51.10
2022-10-28T15:56:14.531Z,51.20
2022-10-28T15:58:48.956Z,51.40
2022-10-28T16:01:34.914Z,52.10
2022-10-28T16:04:02.384Z,52.90
2022-10-28T16:06:37.361Z,52.50
2022-10-28T16:09:18.976Z,53.40
2022-10-28T16:11:50.934Z,53.70
2022-10-28T16:14:38.685Z,53.90
2022-10-28T16:17:17.113Z,54.80
2022-10-28T16:20:04.108Z,54.60
2022-10-28T16:22:34.333Z,55.40
2022-10-28T16:25:01.282Z,55.40
2022-10-28T16:27:32.145Z,55.70
2022-10-28T16:30:03.083Z,56.30
2022-10-28T16:32:40.831Z,56.40
2022-10-28T16:35:16.583Z,57.70
2022-10-28T16:37:50.705Z,57.50
2022-10-28T16:43:16.388Z,57.70
2022-10-28T16:45:43.891Z,58.30
2022-10-28T16:48:18.775Z,58.30
2022-10-28T16:50:52.273Z,58.80
2022-10-28T16:56:13.788Z,59.00
2022-10-28T16:58:42.484Z,59.20
2022-10-28T17:01:11.767Z,59.50
2022-10-28T17:03:38.843Z,59.80
2022-10-28T17:06:06.160Z,60.00
2022-10-28T17:08:57.107Z,60.30
2022-10-28T17:11:19.931Z,60.60
2022-10-28T17:13:47.927Z,60.90
2022-10-28T17:16:14.953Z,61.10
2022-10-28T17:18:43.616Z,61.20
2022-10-28T17:21:10.616Z,61.80
2022-10-28T17:23:39.844Z,62.10
2022-10-28T17:26:06.878Z,62.50
2022-10-28T17:28:33.755Z,62.60
2022-10-28T17:31:06.975Z,62.90
2022-10-28T17:33:34.593Z,63.80
2022-10-28T17:36:06.360Z,63.40
2022-10-28T17:38:33.271Z,64.00
2022-10-28T17:41:00.341Z,64.00
2022-10-28T17:43:27.982Z,64.20
2022-10-28T17:46:06.951Z,64.40
2022-10-28T17:48:34.461Z,65.20
2022-10-28T17:51:01.262Z,64.80
2022-10-28T17:53:28.600Z,65.10
2022-10-28T17:56:01.257Z,65.30
2022-10-28T17:58:28.628Z,65.70
2022-10-28T18:01:08.856Z,65.80
2022-10-28T18:03:38.944Z,66.50
2022-10-28T18:06:13.521Z,66.10
2022-10-28T18:08:42.527Z,66.30
2022-10-28T18:11:13.238Z,66.50
2022-10-28T18:13:44.956Z,66.60
2022-10-28T18:16:19.282Z,66.90
2022-10-28T18:18:46.385Z,67.10
2022-10-28T18:21:14.714Z,67.10
2022-10-28T18:23:41.827Z,68.10
2022-10-28T18:26:14.590Z,67.50
2022-10-28T18:28:43.751Z,68.00
2022-10-28T18:31:19.850Z,67.90
2022-10-28T18:33:47.897Z,68.20
2022-10-28T18:36:22.212Z,68.10
2022-10-28T18:38:50.707Z,68.70
2022-10-28T18:41:27.123Z,68.60
2022-10-28T18:43:59.827Z,69.00
2022-10-28T18:46:28.983Z,68.80
2022-10-28T18:51:27.648Z,69.20
2022-10-28T18:53:56.470Z,69.40
2022-10-28T18:56:26.996Z,69.50
2022-10-28T18:58:55.232Z,69.70
2022-10-28T19:01:28.027Z,69.70
2022-10-28T19:04:01.299Z,70.10
2022-10-28T19:06:32.550Z,70.20
2022-10-28T19:09:04.303Z,70.20
2022-10-28T19:11:32.673Z,70.40
2022-10-28T19:14:02.499Z,70.40
2022-10-28T19:16:33.097Z,70.50
2022-10-28T19:19:03.191Z,70.70
2022-10-28T19:21:30.801Z,70.80
2022-10-28T19:23:57.840Z,71.00
2022-10-28T19:26:25.283Z,71.10
2022-10-28T19:28:52.355Z,71.30
2022-10-28T19:31:23.565Z,71.40
2022-10-28T19:33:53.012Z,71.50
2022-10-28T19:36:26.273Z,71.70
2022-10-28T19:38:55.278Z,71.80
2022-10-28T19:41:25.450Z,71.80
2022-10-28T19:44:01.033Z,72.10
2022-10-28T19:46:30.896Z,72.50
2022-10-28T19:48:59.930Z,72.30
2022-10-28T19:51:36.122Z,72.30
2022-10-28T19:54:12.247Z,72.30
2022-10-28T19:56:40.065Z,72.50
2022-10-28T19:59:07.312Z,72.50
2022-10-28T20:01:39.131Z,72.60
2022-10-28T20:04:08.010Z,72.90
2022-10-28T20:06:38.148Z,72.80
2022-10-28T20:09:06.546Z,73.10
2022-10-28T20:11:37.553Z,73.00
2022-10-28T20:14:12.577Z,73.10
2022-10-28T20:16:45.955Z,73.20
2022-10-28T20:19:13.159Z,73.10
2022-10-28T20:21:40.552Z,73.20
2022-10-28T20:24:07.860Z,73.30
2022-10-28T20:26:37.828Z,73.30
2022-10-28T20:29:06.696Z,73.30
2022-10-28T20:31:33.861Z,73.30
2022-10-28T20:34:03.940Z,73.30
2022-10-28T20:36:40.698Z,73.40
2022-10-28T20:39:20.918Z,73.60
2022-10-28T20:41:49.585Z,73.60
2022-10-28T20:44:16.636Z,73.40
2022-10-28T20:46:45.127Z,73.40
2022-10-28T20:49:13.418Z,73.50
2022-10-28T20:51:40.904Z,73.50
2022-10-28T20:54:07.935Z,73.50
2022-10-28T20:56:38.207Z,73.60
2022-10-28T20:59:06.013Z,73.80
2022-10-28T21:01:39.181Z,73.60
2022-10-28T21:04:09.846Z,73.80
2022-10-28T21:06:40.434Z,73.70
2022-10-28T21:09:08.764Z,73.70
2022-10-28T21:11:35.793Z,73.80
2022-10-28T21:14:02.908Z,73.80
2022-10-28T21:16:30.506Z,73.80
2022-10-28T21:18:59.186Z,73.80
2022-10-28T21:21:27.728Z,73.90
2022-10-28T21:23:55.113Z,73.90
2022-10-28T21:26:22.416Z,73.90
2022-10-28T21:28:51.950Z,74.60
2022-10-28T21:31:20.440Z,73.90
2022-10-28T21:36:22.508Z,73.90
2022-10-28T21:38:54.799Z,73.90
2022-10-28T21:41:23.579Z,74.00
2022-10-28T21:43:52.864Z,73.90
2022-10-28T21:46:21.390Z,73.80
2022-10-28T21:48:48.386Z,73.90
2022-10-28T21:51:16.551Z,73.80
2022-10-28T21:53:45.057Z,73.90
2022-10-28T21:56:19.474Z,73.90
2022-10-28T21:58:51.256Z,73.90
2022-10-28T22:01:24.623Z,73.90
2022-10-28T22:03:54.582Z,73.90
2022-10-28T22:06:22.371Z,73.80
2022-10-28T22:08:49.288Z,73.80
2022-10-28T22:11:19.517Z,73.80
2022-10-28T22:13:48.551Z,73.80
2022-10-28T22:16:17.952Z,73.80
2022-10-28T22:18:48.583Z,73.90
2022-10-28T22:21:18.557Z,73.70
2022-10-28T22:23:46.205Z,73.60
2022-10-28T22:26:28.611Z,73.60
2022-10-28T22:28:56.283Z,73.80
2022-10-28T22:31:27.491Z,73.50
2022-10-28T22:33:54.615Z,73.50
2022-10-28T22:36:24.135Z,73.50
2022-10-28T22:38:51.564Z,73.50
2022-10-28T22:41:32.040Z,73.40
2022-10-28T22:44:02.307Z,73.60
2022-10-28T22:46:33.400Z,73.40
2022-10-28T22:49:00.862Z,73.30
2022-10-28T22:51:27.663Z,73.20
2022-10-28T22:53:55.705Z,73.20
2022-10-28T22:56:25.083Z,73.20
2022-10-28T22:58:59.730Z,73.00
2022-10-28T23:01:29.378Z,73.10
2022-10-28T23:03:56.456Z,72.90
2022-10-28T23:06:26.553Z,72.90
2022-10-28T23:08:54.636Z,72.80
2022-10-28T23:11:22.882Z,72.70
2022-10-28T23:13:54.612Z,72.60
2022-10-28T23:16:23.370Z,72.50
2022-10-28T23:18:50.242Z,72.50
2022-10-28T23:21:20.313Z,72.30
2022-10-28T23:23:57.396Z,72.40
2022-10-28T23:26:26.296Z,72.30
2022-10-28T23:28:57.055Z,72.10
2022-10-28T23:31:24.477Z,72.10
2022-10-28T23:33:52.820Z,71.90
2022-10-28T23:36:20.025Z,71.80
2022-10-28T23:38:47.063Z,71.70
2022-10-28T23:41:18.074Z,71.60
2022-10-28T23:43:45.266Z,71.50
2022-10-28T23:46:12.300Z,71.40
2022-10-28T23:48:39.348Z,71.40
2022-10-28T23:51:07.235Z,71.20
2022-10-28T23:53:35.043Z,71.10
2022-10-28T23:56:01.989Z,71.10
2022-10-28T23:58:28.898Z,71.10
